sensor_id;sensor_type;location;lat;lon;timestamp;temperature;humidity
21770;DHT22;11046;49.558;8.674;2024-01-16T00:00:18;-0.20;99.90
21770;DHT22;11046;49.558;8.674;2024-01-16T00:03:19;-0.30;99.90
21770;DHT22;11046;49.558;8.674;2024-01-16T00:06:19;-0.30;99.90
21770;DHT22;11046;49.558;8.674;2024-01-16T00:09:20;-0.40;99.90
21770;DHT22;11046;49.558;8.674;2024-01-16T00:12:21;-0.50;99.90
21770;DHT22;11046;49.558;8.674;2024-01-16T00:15:21;-0.70;99.90
21770;DHT22;11046;49.558;8.674;2024-01-16T00:18:22;-0.80;99.90
21770;DHT22;11046;49.558;8.674;2024-01-16T00:21:23;-0.80;99.90
21770;DHT22;11046;49.558;8.674;2024-01-16T00:24:23;-0.90;99.90
21770;DHT22;11046;49.558;8.674;2024-01-16T00:27:24;-0.90;99.90
21770;DHT22;11046;49.558;8.674;2024-01-16T00:30:25;-0.90;99.90
21770;DHT22;11046;49.558;8.674;2024-01-16T00:33:25;-0.90;99.90
21770;DHT22;11046;49.558;8.674;2024-01-16T00:36:27;-0.80;99.90
21770;DHT22;11046;49.558;8.674;2024-01-16T00:39:28;-0.70;99.90
21770;DHT22;11046;49.558;8.674;2024-01-16T00:42:30;-0.80;99.90
21770;DHT22;11046;49.558;8.674;2024-01-16T00:45:30;-0.70;99.90
21770;DHT22;11046;49.558;8.674;2024-01-16T00:48:31;-0.70;99.90
21770;DHT22;11046;49.558;8.674;2024-01-16T00:51:31;-0.60;99.90
21770;DHT22;11046;49.558;8.674;2024-01-16T00:54:32;-0.60;99.90
21770;DHT22;11046;49.558;8.674;2024-01-16T00:57:33;-0.60;99.90
21770;DHT22;11046;49.558;8.674;2024-01-16T01:00:33;-0.60;99.90
21770;DHT22;11046;49.558;8.674;2024-01-16T01:03:35;-0.60;99.90
21770;DHT22;11046;49.558;8.674;2024-01-16T01:06:36;-0.60;99.90
21770;DHT22;11046;49.558;8.674;2024-01-16T01:09:37;-0.60;99.90
21770;DHT22;11046;49.558;8.674;2024-01-16T01:12:37;-0.60;99.90
21770;DHT22;11046;49.558;8.674;2024-01-16T01:15:38;-0.50;99.90
21770;DHT22;11046;49.558;8.674;2024-01-16T01:18:38;-0.30;99.90
21770;DHT22;11046;49.558;8.674;2024-01-16T01:21:39;-0.30;99.90
21770;DHT22;11046;49.558;8.674;2024-01-16T01:24:40;-0.30;99.90
21770;DHT22;11046;49.558;8.674;2024-01-16T01:27:41;-0.40;99.90
21770;DHT22;11046;49.558;8.674;2024-01-16T01:30:41;-0.50;99.90
21770;DHT22;11046;49.558;8.674;2024-01-16T01:33:42;-0.40;99.90
21770;DHT22;11046;49.558;8.674;2024-01-16T01:36:43;-0.40;99.90
21770;DHT22;11046;49.558;8.674;2024-01-16T01:39:43;-0.50;99.90
21770;DHT22;11046;49.558;8.674;2024-01-16T01:42:44;-0.50;99.90
21770;DHT22;11046;49.558;8.674;2024-01-16T01:45:55;-0.40;99.90
21770;DHT22;11046;49.558;8.674;2024-01-16T01:48:57;-0.50;99.90
21770;DHT22;11046;49.558;8.674;2024-01-16T01:51:58;-0.40;99.90
21770;DHT22;11046;49.558;8.674;2024-01-16T01:54:58;-0.50;99.90
21770;DHT22;11046;49.558;8.674;2024-01-16T01:57:59;-0.50;99.90
21770;DHT22;11046;49.558;8.674;2024-01-16T02:01:02;-0.50;99.90
21770;DHT22;11046;49.558;8.674;2024-01-16T02:04:04;-0.50;99.90
21770;DHT22;11046;49.558;8.674;2024-01-16T02:07:06;-0.60;99.90
21770;DHT22;11046;49.558;8.674;2024-01-16T02:10:07;-0.60;99.90
21770;DHT22;11046;49.558;8.674;2024-01-16T02:13:08;-0.60;99.90
21770;DHT22;11046;49.558;8.674;2024-01-16T02:16:21;-0.60;99.90
21770;DHT22;11046;49.558;8.674;2024-01-16T02:19:22;-0.60;99.90
21770;DHT22;11046;49.558;8.674;2024-01-16T02:22:27;-0.60;99.90
21770;DHT22;11046;49.558;8.674;2024-01-16T02:25:29;-0.60;99.90
21770;DHT22;11046;49.558;8.674;2024-01-16T02:28:30;-0.60;99.90
21770;DHT22;11046;49.558;8.674;2024-01-16T02:31:32;-0.70;99.90
21770;DHT22;11046;49.558;8.674;2024-01-16T02:34:32;-0.60;99.90
21770;DHT22;11046;49.558;8.674;2024-01-16T02:37:33;-0.60;99.90
21770;DHT22;11046;49.558;8.674;2024-01-16T02:40:34;-0.60;99.90
21770;DHT22;11046;49.558;8.674;2024-01-16T02:46:38;-0.60;99.90
21770;DHT22;11046;49.558;8.674;2024-01-16T02:49:39;-0.50;99.90
21770;DHT22;11046;49.558;8.674;2024-01-16T02:52:40;-0.50;99.90
21770;DHT22;11046;49.558;8.674;2024-01-16T02:55:41;-0.50;99.90
21770;DHT22;11046;49.558;8.674;2024-01-16T02:58:41;-0.60;99.90
21770;DHT22;11046;49.558;8.674;2024-01-16T03:01:42;-0.60;99.90
21770;DHT22;11046;49.558;8.674;2024-01-16T03:04:43;-0.60;99.90
21770;DHT22;11046;49.558;8.674;2024-01-16T03:07:44;-0.50;99.90
21770;DHT22;11046;49.558;8.674;2024-01-16T03:10:44;-0.50;99.90
21770;DHT22;11046;49.558;8.674;2024-01-16T03:13:45;-0.50;99.90
21770;DHT22;11046;49.558;8.674;2024-01-16T03:16:46;-0.50;99.90
21770;DHT22;11046;49.558;8.674;2024-01-16T03:19:46;-0.50;99.90
21770;DHT22;11046;49.558;8.674;2024-01-16T03:22:47;-0.40;99.90
21770;DHT22;11046;49.558;8.674;2024-01-16T03:25:47;-0.40;99.90
21770;DHT22;11046;49.558;8.674;2024-01-16T03:28:48;-0.30;99.90
21770;DHT22;11046;49.558;8.674;2024-01-16T03:31:49;-0.30;99.90
21770;DHT22;11046;49.558;8.674;2024-01-16T03:34:49;-0.30;99.90
21770;DHT22;11046;49.558;8.674;2024-01-16T03:37:50;-0.40;99.90
21770;DHT22;11046;49.558;8.674;2024-01-16T03:40:50;-0.40;99.90
21770;DHT22;11046;49.558;8.674;2024-01-16T03:43:52;-0.50;99.90
21770;DHT22;11046;49.558;8.674;2024-01-16T03:46:55;-0.50;99.90
21770;DHT22;11046;49.558;8.674;2024-01-16T03:49:56;-0.50;99.90
21770;DHT22;11046;49.558;8.674;2024-01-16T03:52:56;-0.40;99.90
21770;DHT22;11046;49.558;8.674;2024-01-16T03:55:57;-0.40;99.90
21770;DHT22;11046;49.558;8.674;2024-01-16T03:58:57;-0.40;99.90
21770;DHT22;11046;49.558;8.674;2024-01-16T04:01:58;-0.30;99.90
21770;DHT22;11046;49.558;8.674;2024-01-16T04:05:00;-0.30;99.90
21770;DHT22;11046;49.558;8.674;2024-01-16T04:08:01;-0.40;99.90
21770;DHT22;11046;49.558;8.674;2024-01-16T04:11:01;-0.40;99.90
21770;DHT22;11046;49.558;8.674;2024-01-16T04:14:02;-0.40;99.90
21770;DHT22;11046;49.558;8.674;2024-01-16T04:17:03;-0.50;99.90
21770;DHT22;11046;49.558;8.674;2024-01-16T04:20:04;-0.50;99.90
21770;DHT22;11046;49.558;8.674;2024-01-16T04:23:07;-0.60;99.90
21770;DHT22;11046;49.558;8.674;2024-01-16T04:26:07;-0.70;99.90
21770;DHT22;11046;49.558;8.674;2024-01-16T04:29:08;-0.80;99.90
21770;DHT22;11046;49.558;8.674;2024-01-16T04:32:10;-0.90;99.90
21770;DHT22;11046;49.558;8.674;2024-01-16T04:35:10;-1.00;99.90
21770;DHT22;11046;49.558;8.674;2024-01-16T04:38:11;-1.00;99.90
21770;DHT22;11046;49.558;8.674;2024-01-16T04:41:12;-1.00;99.90
21770;DHT22;11046;49.558;8.674;2024-01-16T04:44:12;-1.00;99.90
21770;DHT22;11046;49.558;8.674;2024-01-16T04:47:13;-1.10;99.90
21770;DHT22;11046;49.558;8.674;2024-01-16T04:50:14;-1.10;99.90
21770;DHT22;11046;49.558;8.674;2024-01-16T04:53:15;-1.10;99.90
21770;DHT22;11046;49.558;8.674;2024-01-16T04:56:16;-1.20;99.90
21770;DHT22;11046;49.558;8.674;2024-01-16T04:59:16;-1.10;99.90
21770;DHT22;11046;49.558;8.674;2024-01-16T05:02:17;-1.20;99.90
21770;DHT22;11046;49.558;8.674;2024-01-16T05:05:18;-1.30;99.90
21770;DHT22;11046;49.558;8.674;2024-01-16T05:08:19;-1.30;99.90
21770;DHT22;11046;49.558;8.674;2024-01-16T05:11:19;-1.30;99.90
21770;DHT22;11046;49.558;8.674;2024-01-16T05:14:20;-1.40;99.90
21770;DHT22;11046;49.558;8.674;2024-01-16T05:17:25;-1.50;99.90
21770;DHT22;11046;49.558;8.674;2024-01-16T05:20:25;-1.50;99.90
21770;DHT22;11046;49.558;8.674;2024-01-16T05:23:26;-1.50;99.90
21770;DHT22;11046;49.558;8.674;2024-01-16T05:26:27;-1.50;99.90
21770;DHT22;11046;49.558;8.674;2024-01-16T05:29:28;-1.50;99.90
21770;DHT22;11046;49.558;8.674;2024-01-16T05:32:28;-1.70;99.90
21770;DHT22;11046;49.558;8.674;2024-01-16T05:35:29;-1.70;99.90
21770;DHT22;11046;49.558;8.674;2024-01-16T05:38:30;-1.80;99.90
21770;DHT22;11046;49.558;8.674;2024-01-16T05:41:34;-1.90;99.90
21770;DHT22;11046;49.558;8.674;2024-01-16T05:44:35;-1.90;99.90
21770;DHT22;11046;49.558;8.674;2024-01-16T05:47:35;-1.90;99.90
21770;DHT22;11046;49.558;8.674;2024-01-16T05:50:36;-1.90;99.90
21770;DHT22;11046;49.558;8.674;2024-01-16T05:53:37;-1.80;99.90
21770;DHT22;11046;49.558;8.674;2024-01-16T05:56:38;-1.80;99.90
21770;DHT22;11046;49.558;8.674;2024-01-16T05:59:38;-1.90;99.90
21770;DHT22;11046;49.558;8.674;2024-01-16T06:02:39;-1.90;99.90
21770;DHT22;11046;49.558;8.674;2024-01-16T06:05:39;-1.90;99.90
21770;DHT22;11046;49.558;8.674;2024-01-16T06:08:40;-2.00;99.90
21770;DHT22;11046;49.558;8.674;2024-01-16T06:11:41;-2.00;99.90
21770;DHT22;11046;49.558;8.674;2024-01-16T06:14:41;-2.10;99.90
21770;DHT22;11046;49.558;8.674;2024-01-16T06:17:42;-2.10;99.90
21770;DHT22;11046;49.558;8.674;2024-01-16T06:20:43;-2.10;99.90
21770;DHT22;11046;49.558;8.674;2024-01-16T06:23:43;-2.20;99.90
21770;DHT22;11046;49.558;8.674;2024-01-16T06:26:44;-2.20;99.90
21770;DHT22;11046;49.558;8.674;2024-01-16T06:29:45;-2.20;99.90
21770;DHT22;11046;49.558;8.674;2024-01-16T06:32:46;-2.20;99.90
21770;DHT22;11046;49.558;8.674;2024-01-16T06:35:47;-2.20;99.90
21770;DHT22;11046;49.558;8.674;2024-01-16T06:38:48;-2.20;99.90
21770;DHT22;11046;49.558;8.674;2024-01-16T06:41:48;-2.30;99.90
21770;DHT22;11046;49.558;8.674;2024-01-16T06:44:49;-2.20;99.90
21770;DHT22;11046;49.558;8.674;2024-01-16T06:47:50;-2.30;99.90
21770;DHT22;11046;49.558;8.674;2024-01-16T06:50:50;-2.30;99.90
21770;DHT22;11046;49.558;8.674;2024-01-16T06:53:51;-2.30;99.90
21770;DHT22;11046;49.558;8.674;2024-01-16T06:56:51;-2.30;99.90
21770;DHT22;11046;49.558;8.674;2024-01-16T06:59:52;-2.20;99.90
21770;DHT22;11046;49.558;8.674;2024-01-16T07:02:53;-2.20;99.90
21770;DHT22;11046;49.558;8.674;2024-01-16T07:05:54;-2.20;99.90
21770;DHT22;11046;49.558;8.674;2024-01-16T07:08:55;-2.20;99.90
21770;DHT22;11046;49.558;8.674;2024-01-16T07:11:55;-2.10;99.90
21770;DHT22;11046;49.558;8.674;2024-01-16T07:14:56;-2.10;99.90
21770;DHT22;11046;49.558;8.674;2024-01-16T07:17:56;-2.20;99.90
21770;DHT22;11046;49.558;8.674;2024-01-16T07:20:57;-2.20;99.90
21770;DHT22;11046;49.558;8.674;2024-01-16T07:23:58;-2.10;99.90
21770;DHT22;11046;49.558;8.674;2024-01-16T07:26:58;-2.10;99.90
21770;DHT22;11046;49.558;8.674;2024-01-16T07:29:59;-2.10;99.90
21770;DHT22;11046;49.558;8.674;2024-01-16T07:32:59;-2.10;99.90
21770;DHT22;11046;49.558;8.674;2024-01-16T07:36:00;-2.20;99.90
21770;DHT22;11046;49.558;8.674;2024-01-16T07:39:01;-2.00;99.90
21770;DHT22;11046;49.558;8.674;2024-01-16T07:42:01;-2.00;99.90
21770;DHT22;11046;49.558;8.674;2024-01-16T07:45:03;-2.00;99.90
21770;DHT22;11046;49.558;8.674;2024-01-16T07:48:04;-2.00;99.90
21770;DHT22;11046;49.558;8.674;2024-01-16T07:51:06;-2.00;99.90
21770;DHT22;11046;49.558;8.674;2024-01-16T07:54:10;-2.00;99.90
21770;DHT22;11046;49.558;8.674;2024-01-16T07:57:11;-1.90;99.90
21770;DHT22;11046;49.558;8.674;2024-01-16T08:00:12;-1.90;99.90
21770;DHT22;11046;49.558;8.674;2024-01-16T08:03:13;-1.80;99.90
21770;DHT22;11046;49.558;8.674;2024-01-16T08:06:14;-1.80;99.90
21770;DHT22;11046;49.558;8.674;2024-01-16T08:09:15;-1.70;99.90
21770;DHT22;11046;49.558;8.674;2024-01-16T08:12:16;-1.60;99.90
21770;DHT22;11046;49.558;8.674;2024-01-16T08:15:16;-1.50;99.90
21770;DHT22;11046;49.558;8.674;2024-01-16T08:18:17;-1.40;99.90
21770;DHT22;11046;49.558;8.674;2024-01-16T08:21:18;-1.40;99.90
21770;DHT22;11046;49.558;8.674;2024-01-16T08:24:18;-1.30;99.90
21770;DHT22;11046;49.558;8.674;2024-01-16T08:27:19;-1.20;99.90
21770;DHT22;11046;49.558;8.674;2024-01-16T08:30:20;-1.20;99.90
21770;DHT22;11046;49.558;8.674;2024-01-16T08:33:21;-1.10;99.90
21770;DHT22;11046;49.558;8.674;2024-01-16T08:36:22;-1.00;99.90
21770;DHT22;11046;49.558;8.674;2024-01-16T08:39:23;-1.00;99.90
21770;DHT22;11046;49.558;8.674;2024-01-16T08:42:24;-1.00;99.90
21770;DHT22;11046;49.558;8.674;2024-01-16T08:45:25;-0.90;99.90
21770;DHT22;11046;49.558;8.674;2024-01-16T08:48:26;-0.80;99.90
21770;DHT22;11046;49.558;8.674;2024-01-16T08:51:27;-0.80;99.90
21770;DHT22;11046;49.558;8.674;2024-01-16T08:54:27;-0.70;99.90
21770;DHT22;11046;49.558;8.674;2024-01-16T08:57:28;-0.70;99.90
21770;DHT22;11046;49.558;8.674;2024-01-16T09:00:28;-0.70;99.90
21770;DHT22;11046;49.558;8.674;2024-01-16T09:03:29;-0.60;99.90
21770;DHT22;11046;49.558;8.674;2024-01-16T09:06:30;-0.50;99.90
21770;DHT22;11046;49.558;8.674;2024-01-16T09:09:31;-0.50;99.90
21770;DHT22;11046;49.558;8.674;2024-01-16T09:12:31;-0.50;99.90
21770;DHT22;11046;49.558;8.674;2024-01-16T09:15:32;-0.40;99.90
21770;DHT22;11046;49.558;8.674;2024-01-16T09:18:32;-0.30;99.90
21770;DHT22;11046;49.558;8.674;2024-01-16T09:21:34;-0.30;99.90
21770;DHT22;11046;49.558;8.674;2024-01-16T09:24:34;-0.30;99.90
21770;DHT22;11046;49.558;8.674;2024-01-16T09:27:35;-0.20;99.90
21770;DHT22;11046;49.558;8.674;2024-01-16T09:30:35;-0.20;99.90
21770;DHT22;11046;49.558;8.674;2024-01-16T09:33:36;-0.20;99.90
21770;DHT22;11046;49.558;8.674;2024-01-16T09:36:37;-0.30;99.90
21770;DHT22;11046;49.558;8.674;2024-01-16T09:39:37;-0.20;99.90
21770;DHT22;11046;49.558;8.674;2024-01-16T09:42:38;-0.20;99.90
21770;DHT22;11046;49.558;8.674;2024-01-16T09:45:38;-0.20;99.90
21770;DHT22;11046;49.558;8.674;2024-01-16T09:48:40;-0.20;99.90
21770;DHT22;11046;49.558;8.674;2024-01-16T09:51:43;-0.30;99.90
21770;DHT22;11046;49.558;8.674;2024-01-16T09:54:43;-0.40;99.90
21770;DHT22;11046;49.558;8.674;2024-01-16T09:57:45;-0.30;99.90
21770;DHT22;11046;49.558;8.674;2024-01-16T10:00:46;-0.30;99.90
21770;DHT22;11046;49.558;8.674;2024-01-16T10:03:47;-0.10;99.90
21770;DHT22;11046;49.558;8.674;2024-01-16T10:06:48;0.00;99.90
21770;DHT22;11046;49.558;8.674;2024-01-16T10:09:48;0.00;99.90
21770;DHT22;11046;49.558;8.674;2024-01-16T10:12:49;0.00;99.90
21770;DHT22;11046;49.558;8.674;2024-01-16T10:15:51;0.10;99.90
21770;DHT22;11046;49.558;8.674;2024-01-16T10:19:03;0.20;99.90
21770;DHT22;11046;49.558;8.674;2024-01-16T10:22:05;0.20;99.90
21770;DHT22;11046;49.558;8.674;2024-01-16T10:25:10;0.20;99.90
21770;DHT22;11046;49.558;8.674;2024-01-16T10:28:19;0.30;99.90
21770;DHT22;11046;49.558;8.674;2024-01-16T10:31:26;0.40;99.90
21770;DHT22;11046;49.558;8.674;2024-01-16T10:34:29;0.40;99.90
21770;DHT22;11046;49.558;8.674;2024-01-16T10:37:40;0.40;99.90
21770;DHT22;11046;49.558;8.674;2024-01-16T10:40:42;0.50;99.90
21770;DHT22;11046;49.558;8.674;2024-01-16T10:43:43;0.60;99.90
21770;DHT22;11046;49.558;8.674;2024-01-16T10:46:44;0.70;99.90
21770;DHT22;11046;49.558;8.674;2024-01-16T10:49:45;0.80;99.90
21770;DHT22;11046;49.558;8.674;2024-01-16T10:52:48;0.80;99.90
21770;DHT22;11046;49.558;8.674;2024-01-16T10:55:51;0.80;99.90
21770;DHT22;11046;49.558;8.674;2024-01-16T10:59:12;0.70;99.90
21770;DHT22;11046;49.558;8.674;2024-01-16T11:02:15;0.90;99.90
21770;DHT22;11046;49.558;8.674;2024-01-16T11:05:17;0.90;99.90
21770;DHT22;11046;49.558;8.674;2024-01-16T11:08:19;0.90;99.90
21770;DHT22;11046;49.558;8.674;2024-01-16T11:11:22;0.90;99.80
21770;DHT22;11046;49.558;8.674;2024-01-16T11:14:23;1.00;99.80
21770;DHT22;11046;49.558;8.674;2024-01-16T11:17:25;1.00;99.70
21770;DHT22;11046;49.558;8.674;2024-01-16T11:20:26;1.00;99.70
21770;DHT22;11046;49.558;8.674;2024-01-16T11:23:27;0.90;99.70
21770;DHT22;11046;49.558;8.674;2024-01-16T11:26:33;0.90;99.70
21770;DHT22;11046;49.558;8.674;2024-01-16T11:29:34;0.80;99.70
21770;DHT22;11046;49.558;8.674;2024-01-16T11:32:40;0.90;99.70
21770;DHT22;11046;49.558;8.674;2024-01-16T11:35:41;1.00;99.70
21770;DHT22;11046;49.558;8.674;2024-01-16T11:38:41;1.00;99.50
21770;DHT22;11046;49.558;8.674;2024-01-16T11:44:51;0.90;99.40
21770;DHT22;11046;49.558;8.674;2024-01-16T11:48:11;1.00;99.50
21770;DHT22;11046;49.558;8.674;2024-01-16T11:51:32;1.10;99.40
21770;DHT22;11046;49.558;8.674;2024-01-16T11:54:41;1.20;99.40
21770;DHT22;11046;49.558;8.674;2024-01-16T12:01:05;1.30;99.10
21770;DHT22;11046;49.558;8.674;2024-01-16T12:04:07;1.20;99.20
21770;DHT22;11046;49.558;8.674;2024-01-16T12:07:08;1.30;99.20
21770;DHT22;11046;49.558;8.674;2024-01-16T12:10:09;1.30;99.10
21770;DHT22;11046;49.558;8.674;2024-01-16T12:13:12;1.20;99.00
21770;DHT22;11046;49.558;8.674;2024-01-16T12:16:12;1.10;99.10
21770;DHT22;11046;49.558;8.674;2024-01-16T12:19:13;1.10;99.10
21770;DHT22;11046;49.558;8.674;2024-01-16T12:22:14;1.00;99.00
21770;DHT22;11046;49.558;8.674;2024-01-16T12:25:22;0.90;99.10
21770;DHT22;11046;49.558;8.674;2024-01-16T12:28:22;0.90;99.10
21770;DHT22;11046;49.558;8.674;2024-01-16T12:31:23;0.90;99.10
21770;DHT22;11046;49.558;8.674;2024-01-16T12:34:24;0.90;99.10
21770;DHT22;11046;49.558;8.674;2024-01-16T12:37:25;0.90;99.00
21770;DHT22;11046;49.558;8.674;2024-01-16T12:40:26;1.00;99.10
21770;DHT22;11046;49.558;8.674;2024-01-16T12:43:27;1.10;99.10
21770;DHT22;11046;49.558;8.674;2024-01-16T12:46:28;1.20;99.10
21770;DHT22;11046;49.558;8.674;2024-01-16T12:49:29;1.10;99.00
21770;DHT22;11046;49.558;8.674;2024-01-16T12:52:30;1.10;99.00
21770;DHT22;11046;49.558;8.674;2024-01-16T12:55:34;1.10;99.00
21770;DHT22;11046;49.558;8.674;2024-01-16T12:58:36;1.20;99.00
21770;DHT22;11046;49.558;8.674;2024-01-16T13:01:40;1.10;98.80
21770;DHT22;11046;49.558;8.674;2024-01-16T13:04:42;1.20;98.80
21770;DHT22;11046;49.558;8.674;2024-01-16T13:07:43;1.20;98.60
21770;DHT22;11046;49.558;8.674;2024-01-16T13:10:43;1.10;98.60
21770;DHT22;11046;49.558;8.674;2024-01-16T13:13:44;1.20;98.60
21770;DHT22;11046;49.558;8.674;2024-01-16T13:16:44;1.10;98.50
21770;DHT22;11046;49.558;8.674;2024-01-16T13:19:45;1.10;98.90
21770;DHT22;11046;49.558;8.674;2024-01-16T13:22:46;1.10;98.30
21770;DHT22;11046;49.558;8.674;2024-01-16T13:25:49;1.10;98.10
21770;DHT22;11046;49.558;8.674;2024-01-16T13:28:50;1.10;98.20
21770;DHT22;11046;49.558;8.674;2024-01-16T13:31:51;1.00;98.20
21770;DHT22;11046;49.558;8.674;2024-01-16T13:34:55;1.00;98.10
21770;DHT22;11046;49.558;8.674;2024-01-16T13:37:55;1.10;98.10
21770;DHT22;11046;49.558;8.674;2024-01-16T13:40:56;1.10;98.00
21770;DHT22;11046;49.558;8.674;2024-01-16T13:43:57;1.00;97.90
21770;DHT22;11046;49.558;8.674;2024-01-16T13:46:57;1.00;97.90
21770;DHT22;11046;49.558;8.674;2024-01-16T13:49:58;1.10;97.90
21770;DHT22;11046;49.558;8.674;2024-01-16T13:53:02;1.10;97.80
21770;DHT22;11046;49.558;8.674;2024-01-16T13:56:03;1.10;97.70
21770;DHT22;11046;49.558;8.674;2024-01-16T13:59:03;1.10;97.70
21770;DHT22;11046;49.558;8.674;2024-01-16T14:02:04;1.20;97.60
21770;DHT22;11046;49.558;8.674;2024-01-16T14:05:10;1.30;97.60
21770;DHT22;11046;49.558;8.674;2024-01-16T14:08:11;1.30;97.60
21770;DHT22;11046;49.558;8.674;2024-01-16T14:11:13;1.30;97.60
21770;DHT22;11046;49.558;8.674;2024-01-16T14:14:13;1.20;97.50
21770;DHT22;11046;49.558;8.674;2024-01-16T14:17:14;1.20;97.40
21770;DHT22;11046;49.558;8.674;2024-01-16T14:20:16;1.30;97.40
21770;DHT22;11046;49.558;8.674;2024-01-16T14:23:17;1.20;97.30
21770;DHT22;11046;49.558;8.674;2024-01-16T14:26:17;1.20;97.30
21770;DHT22;11046;49.558;8.674;2024-01-16T14:29:18;1.20;97.20
21770;DHT22;11046;49.558;8.674;2024-01-16T14:32:21;1.10;97.10
21770;DHT22;11046;49.558;8.674;2024-01-16T14:35:22;1.10;97.20
21770;DHT22;11046;49.558;8.674;2024-01-16T14:38:24;1.10;97.20
21770;DHT22;11046;49.558;8.674;2024-01-16T14:41:25;1.10;97.10
21770;DHT22;11046;49.558;8.674;2024-01-16T14:44:25;1.00;97.10
21770;DHT22;11046;49.558;8.674;2024-01-16T14:47:26;1.10;97.10
21770;DHT22;11046;49.558;8.674;2024-01-16T14:50:27;1.10;97.00
21770;DHT22;11046;49.558;8.674;2024-01-16T14:53:27;1.10;96.90
21770;DHT22;11046;49.558;8.674;2024-01-16T14:56:28;1.10;96.90
21770;DHT22;11046;49.558;8.674;2024-01-16T14:59:29;1.10;97.10
21770;DHT22;11046;49.558;8.674;2024-01-16T15:02:29;1.10;96.90
21770;DHT22;11046;49.558;8.674;2024-01-16T15:05:30;1.10;96.90
21770;DHT22;11046;49.558;8.674;2024-01-16T15:08:31;1.10;96.80
21770;DHT22;11046;49.558;8.674;2024-01-16T15:11:33;1.10;96.80
21770;DHT22;11046;49.558;8.674;2024-01-16T15:14:33;1.00;96.80
21770;DHT22;11046;49.558;8.674;2024-01-16T15:17:34;1.00;96.80
21770;DHT22;11046;49.558;8.674;2024-01-16T15:20:34;0.90;96.80
21770;DHT22;11046;49.558;8.674;2024-01-16T15:23:35;0.90;96.80
21770;DHT22;11046;49.558;8.674;2024-01-16T15:26:36;0.90;96.70
21770;DHT22;11046;49.558;8.674;2024-01-16T15:29:37;0.90;96.70
21770;DHT22;11046;49.558;8.674;2024-01-16T15:32:38;0.90;96.60
21770;DHT22;11046;49.558;8.674;2024-01-16T15:35:38;0.90;96.50
21770;DHT22;11046;49.558;8.674;2024-01-16T15:38:39;0.90;96.60
21770;DHT22;11046;49.558;8.674;2024-01-16T15:41:39;0.70;96.50
21770;DHT22;11046;49.558;8.674;2024-01-16T15:44:40;0.60;96.50
21770;DHT22;11046;49.558;8.674;2024-01-16T15:47:40;0.50;96.70
21770;DHT22;11046;49.558;8.674;2024-01-16T15:50:41;0.40;96.70
21770;DHT22;11046;49.558;8.674;2024-01-16T15:53:42;0.30;96.80
21770;DHT22;11046;49.558;8.674;2024-01-16T15:56:42;0.20;96.90
21770;DHT22;11046;49.558;8.674;2024-01-16T15:59:43;0.10;96.90
21770;DHT22;11046;49.558;8.674;2024-01-16T16:02:44;0.10;97.00
21770;DHT22;11046;49.558;8.674;2024-01-16T16:05:48;0.00;96.90
21770;DHT22;11046;49.558;8.674;2024-01-16T16:08:49;-0.10;97.00
21770;DHT22;11046;49.558;8.674;2024-01-16T16:11:49;-0.10;97.00
21770;DHT22;11046;49.558;8.674;2024-01-16T16:14:50;-0.20;97.00
21770;DHT22;11046;49.558;8.674;2024-01-16T16:17:51;-0.30;97.10
21770;DHT22;11046;49.558;8.674;2024-01-16T16:20:51;-0.40;97.20
21770;DHT22;11046;49.558;8.674;2024-01-16T16:23:52;-0.50;97.20
21770;DHT22;11046;49.558;8.674;2024-01-16T16:26:54;-0.50;97.30
21770;DHT22;11046;49.558;8.674;2024-01-16T16:29:56;-0.60;97.30
21770;DHT22;11046;49.558;8.674;2024-01-16T16:32:58;-0.60;97.40
21770;DHT22;11046;49.558;8.674;2024-01-16T16:35:58;-0.60;97.50
21770;DHT22;11046;49.558;8.674;2024-01-16T16:38:59;-0.60;97.50
21770;DHT22;11046;49.558;8.674;2024-01-16T16:42:00;-0.70;97.40
21770;DHT22;11046;49.558;8.674;2024-01-16T16:45:01;-0.60;97.50
21770;DHT22;11046;49.558;8.674;2024-01-16T16:48:01;-0.60;97.30
21770;DHT22;11046;49.558;8.674;2024-01-16T16:51:02;-0.60;97.20
21770;DHT22;11046;49.558;8.674;2024-01-16T16:54:03;-0.60;97.20
21770;DHT22;11046;49.558;8.674;2024-01-16T16:57:03;-0.60;97.10
21770;DHT22;11046;49.558;8.674;2024-01-16T17:00:04;-0.70;97.10
21770;DHT22;11046;49.558;8.674;2024-01-16T17:03:07;-0.70;97.10
21770;DHT22;11046;49.558;8.674;2024-01-16T17:06:08;-0.80;97.10
21770;DHT22;11046;49.558;8.674;2024-01-16T17:09:09;-0.90;97.20
21770;DHT22;11046;49.558;8.674;2024-01-16T17:12:11;-1.00;97.30
21770;DHT22;11046;49.558;8.674;2024-01-16T17:15:13;-1.10;97.60
21770;DHT22;11046;49.558;8.674;2024-01-16T17:18:14;-1.10;97.50
21770;DHT22;11046;49.558;8.674;2024-01-16T17:21:15;-1.20;97.50
21770;DHT22;11046;49.558;8.674;2024-01-16T17:24:16;-1.20;97.50
21770;DHT22;11046;49.558;8.674;2024-01-16T17:27:17;-1.30;97.50
21770;DHT22;11046;49.558;8.674;2024-01-16T17:30:17;-1.30;97.50
21770;DHT22;11046;49.558;8.674;2024-01-16T17:33:18;-1.40;97.50
21770;DHT22;11046;49.558;8.674;2024-01-16T17:36:19;-1.40;97.50
21770;DHT22;11046;49.558;8.674;2024-01-16T17:39:20;-1.50;97.60
21770;DHT22;11046;49.558;8.674;2024-01-16T17:42:21;-1.60;97.70
21770;DHT22;11046;49.558;8.674;2024-01-16T17:45:23;-1.60;97.80
21770;DHT22;11046;49.558;8.674;2024-01-16T17:48:24;-1.60;97.70
21770;DHT22;11046;49.558;8.674;2024-01-16T17:51:24;-1.50;97.60
21770;DHT22;11046;49.558;8.674;2024-01-16T17:54:25;-1.60;97.50
21770;DHT22;11046;49.558;8.674;2024-01-16T17:57:27;-1.60;97.60
21770;DHT22;11046;49.558;8.674;2024-01-16T18:00:29;-1.70;97.60
21770;DHT22;11046;49.558;8.674;2024-01-16T18:03:29;-1.70;97.60
21770;DHT22;11046;49.558;8.674;2024-01-16T18:06:30;-1.70;97.60
21770;DHT22;11046;49.558;8.674;2024-01-16T18:09:32;-1.70;97.60
21770;DHT22;11046;49.558;8.674;2024-01-16T18:12:38;-1.80;97.60
21770;DHT22;11046;49.558;8.674;2024-01-16T18:15:39;-1.90;97.80
21770;DHT22;11046;49.558;8.674;2024-01-16T18:18:39;-1.90;97.80
21770;DHT22;11046;49.558;8.674;2024-01-16T18:21:41;-1.90;97.80
21770;DHT22;11046;49.558;8.674;2024-01-16T18:24:41;-1.90;97.80
21770;DHT22;11046;49.558;8.674;2024-01-16T18:27:42;-1.90;97.80
21770;DHT22;11046;49.558;8.674;2024-01-16T18:30:48;-2.00;97.70
21770;DHT22;11046;49.558;8.674;2024-01-16T18:33:48;-2.00;97.70
21770;DHT22;11046;49.558;8.674;2024-01-16T18:36:51;-2.10;97.80
21770;DHT22;11046;49.558;8.674;2024-01-16T18:39:52;-2.10;97.80
21770;DHT22;11046;49.558;8.674;2024-01-16T18:42:53;-2.20;97.80
21770;DHT22;11046;49.558;8.674;2024-01-16T18:45:54;-2.20;97.90
21770;DHT22;11046;49.558;8.674;2024-01-16T18:48:54;-2.30;97.90
21770;DHT22;11046;49.558;8.674;2024-01-16T18:51:56;-2.30;97.90
21770;DHT22;11046;49.558;8.674;2024-01-16T18:54:59;-2.40;97.90
21770;DHT22;11046;49.558;8.674;2024-01-16T18:58:03;-2.40;97.90
21770;DHT22;11046;49.558;8.674;2024-01-16T19:01:04;-2.40;97.90
21770;DHT22;11046;49.558;8.674;2024-01-16T19:04:05;-2.40;97.90
21770;DHT22;11046;49.558;8.674;2024-01-16T19:07:07;-2.50;97.90
21770;DHT22;11046;49.558;8.674;2024-01-16T19:10:13;-2.50;98.00
21770;DHT22;11046;49.558;8.674;2024-01-16T19:13:14;-2.50;98.00
21770;DHT22;11046;49.558;8.674;2024-01-16T19:16:16;-2.50;97.90
21770;DHT22;11046;49.558;8.674;2024-01-16T19:19:16;-2.60;97.90